Time;durP1;ratioP1;P1;durP2;ratioP2;P2;SDS_P1;SDS_P2;PMS_P1;PMS_P2;Temp;Humidity;BMP_temperature;BMP_pressure;BME280_temperature;BME280_humidity;BME280_pressure;Samples;Min_cycle;Max_cycle;Signal;HPM_P1;HPM_P2
2022/05/17 00:02:05;;;;;;;17.90;10.18;;;;;;;9.48;81.62;98209.87;1728477;80;20899;-83
2022/05/17 00:04:31;;;;;;;21.95;10.98;;;;;;;9.46;79.96;98199.33;1723500;80;21009;-83
2022/05/17 00:06:59;;;;;;;20.50;9.98;;;;;;;9.48;80.77;98190.94;1713568;83;21501;-85
2022/05/17 00:09:24;;;;;;;19.02;9.83;;;;;;;9.47;80.30;98198.25;1718699;80;21162;-84
2022/05/17 00:11:51;;;;;;;15.85;10.63;;;;;;;9.44;81.85;98202.84;1720237;82;20875;-82
2022/05/17 00:14:18;;;;;;;14.50;8.33;;;;;;;9.37;82.85;98199.58;1719384;80;21002;-82
2022/05/17 00:16:44;;;;;;;13.18;8.58;;;;;;;9.36;79.43;98194.45;1759950;80;21120;-82
2022/05/17 00:19:10;;;;;;;17.30;8.50;;;;;;;9.23;79.00;98196.59;1745988;80;21461;-85
2022/05/17 00:21:36;;;;;;;14.25;8.68;;;;;;;9.21;78.94;98195.22;1743175;81;21147;-85
2022/05/17 00:24:03;;;;;;;15.25;7.33;;;;;;;9.13;82.91;98191.67;1741531;82;21503;-83
2022/05/17 00:26:29;;;;;;;13.25;7.40;;;;;;;9.15;79.31;98199.81;1708174;82;21443;-82
2022/05/17 00:28:55;;;;;;;14.15;8.65;;;;;;;9.07;78.91;98192.76;1716875;82;20937;-85
2022/05/17 00:31:21;;;;;;;17.07;9.40;;;;;;;9.01;80.21;98184.63;1743152;81;20870;-85
2022/05/17 00:33:47;;;;;;;16.52;7.95;;;;;;;9.07;84.67;98184.11;1743181;82;21323;-84
2022/05/17 00:36:13;;;;;;;14.70;8.90;;;;;;;9.13;82.92;98176.27;1743160;82;20933;-82
2022/05/17 00:38:39;;;;;;;15.88;8.63;;;;;;;9.11;80.63;98176.27;1739857;81;20929;-83
2022/05/17 00:41:04;;;;;;;11.18;7.45;;;;;;;9.09;84.32;98176.54;1710151;82;20927;-81
2022/05/17 00:46:43;;;;;;;17.62;9.53;;;;;;;9.09;84.38;98175.73;1729406;82;21143;-82
2022/05/17 00:49:11;;;;;;;15.72;9.20;;;;;;;9.05;83.71;98176.78;1727342;80;21052;-82
2022/05/17 00:51:37;;;;;;;18.80;9.20;;;;;;;9.01;83.91;98178.41;1726547;82;21010;-85
2022/05/17 00:54:06;;;;;;;15.90;9.28;;;;;;;9.00;84.53;98172.19;1724098;80;20899;-82
2022/05/17 00:56:32;;;;;;;15.80;8.25;;;;;;;9.00;85.62;98170.84;1722099;81;21020;-83
2022/05/17 00:58:59;;;;;;;17.48;9.03;;;;;;;9.03;83.47;98168.94;1742931;82;21705;-82
2022/05/17 01:01:28;;;;;;;16.93;8.60;;;;;;;9.01;85.02;98164.35;1728708;82;21345;-85
2022/05/17 01:03:58;;;;;;;;;;;;;;;9.04;83.42;98169.75;1719103;80;20976;-82
2022/05/17 01:06:28;;;;;;;15.58;7.28;;;;;;;9.02;82.11;98162.45;1705784;82;20187;-85
2022/05/17 01:08:54;;;;;;;11.40;7.17;;;;;;;8.94;81.36;98164.33;1739884;80;21486;-85
2022/05/17 01:11:20;;;;;;;13.95;8.33;;;;;;;8.91;80.49;98168.92;1718307;82;21153;-85
2022/05/17 01:16:30;;;;;;;14.90;8.48;;;;;;;8.88;83.02;98164.02;1728597;80;21034;-85
2022/05/17 01:18:56;;;;;;;14.05;8.80;;;;;;;8.90;82.82;98161.35;1729779;82;20957;-82
2022/05/17 01:21:22;;;;;;;15.20;9.08;;;;;;;8.88;83.21;98154.02;1727510;81;21532;-85
2022/05/17 01:23:48;;;;;;;15.45;9.10;;;;;;;8.90;83.58;98157.84;1737512;80;21086;-82
2022/05/17 01:26:21;;;;;;;13.38;8.65;;;;;;;8.93;83.24;98158.11;1732531;82;21426;-82
2022/05/17 01:28:47;;;;;;;13.22;8.58;;;;;;;8.93;82.24;98157.30;1722263;80;21446;-82
2022/05/17 01:31:13;;;;;;;15.95;7.72;;;;;;;8.93;83.24;98154.59;1743182;82;21021;-81
2022/05/17 01:33:39;;;;;;;11.95;7.25;;;;;;;8.94;81.49;98154.86;1739913;81;20969;-82
2022/05/17 01:36:08;;;;;;;12.07;8.00;;;;;;;8.92;80.84;98155.14;1718919;80;21912;-82
2022/05/17 01:38:34;;;;;;;12.95;8.05;;;;;;;8.91;82.17;98156.75;1728300;80;21055;-85
2022/05/17 01:41:00;;;;;;;13.00;7.67;;;;;;;8.90;84.35;98153.78;1728502;80;21512;-82
2022/05/17 01:43:26;;;;;;;12.33;7.37;;;;;;;8.93;85.23;98143.24;1728401;80;20868;-82
2022/05/17 01:45:52;;;;;;;11.85;7.25;;;;;;;8.99;83.77;98152.19;1732134;82;21006;-85
2022/05/17 01:48:19;;;;;;;13.28;6.80;;;;;;;8.97;82.57;98149.76;1742965;81;21855;-85
2022/05/17 01:50:45;;;;;;;11.33;6.65;;;;;;;8.99;83.42;98153.54;1743151;82;21422;-85
2022/05/17 01:53:10;;;;;;;9.68;6.62;;;;;;;9.01;82.61;98143.27;1743164;81;20958;-85
2022/05/17 01:55:37;;;;;;;13.72;6.83;;;;;;;9.02;81.17;98144.34;1717820;82;20900;-86
2022/05/17 01:58:03;;;;;;;13.48;6.95;;;;;;;9.01;82.99;98137.86;1703025;84;21053;-85
2022/05/17 02:00:30;;;;;;;12.95;7.80;;;;;;;9.01;85.60;98138.67;1717010;80;21300;-85
2022/05/17 02:02:56;;;;;;;18.32;8.13;;;;;;;9.03;85.95;98137.86;1728246;81;21466;-82
2022/05/17 02:05:23;;;;;;;11.75;7.42;;;;;;;9.06;85.87;98141.94;1721960;80;20913;-85
2022/05/17 02:07:50;;;;;;;11.20;7.10;;;;;;;9.04;85.90;98124.61;1702988;84;21002;-85
2022/05/17 02:10:18;;;;;;;21.27;7.83;;;;;;;9.06;85.12;98128.42;1725734;80;21010;-82
2022/05/17 02:12:44;;;;;;;16.02;6.45;;;;;;;9.03;86.73;98132.45;1702971;84;21011;-83
2022/05/17 02:15:11;;;;;;;16.17;5.97;;;;;;;9.07;83.33;98127.34;1723411;80;20887;-85
2022/05/17 02:17:37;;;;;;;16.00;8.53;;;;;;;9.04;85.47;98127.31;1744646;80;22075;-85
2022/05/17 02:20:06;;;;;;;14.63;9.00;;;;;;;9.08;85.08;98124.91;1746269;80;21008;-83
2022/05/17 02:22:32;;;;;;;12.45;6.42;;;;;;;9.12;85.68;98124.63;1743106;81;21108;-83
2022/05/17 02:24:58;;;;;;;11.10;6.97;;;;;;;9.17;84.23;98125.20;1734018;82;21232;-85
2022/05/17 02:27:24;;;;;;;12.28;7.22;;;;;;;9.17;85.78;98113.03;1742629;81;20918;-82
2022/05/17 02:29:50;;;;;;;9.60;6.65;;;;;;;9.14;85.24;98118.41;1736179;80;20897;-85
2022/05/17 02:32:16;;;;;;;16.07;7.00;;;;;;;9.13;82.58;98118.14;1743226;81;20882;-85
2022/05/17 02:34:43;;;;;;;13.25;7.53;;;;;;;9.01;84.21;98111.64;1743047;82;20997;-84
2022/05/17 02:37:09;;;;;;;10.70;6.53;;;;;;;9.01;85.18;98110.83;1743152;81;21469;-82
2022/05/17 02:39:35;;;;;;;10.32;5.97;;;;;;;9.05;82.87;98109.20;1743088;82;20934;-85
2022/05/17 02:42:02;;;;;;;12.43;6.22;;;;;;;9.01;84.52;98102.72;1743217;81;21447;-84
2022/05/17 02:44:28;;;;;;;12.63;7.30;;;;;;;8.96;85.16;98098.11;1723758;82;21120;-83
2022/05/17 02:46:56;;;;;;;13.10;7.40;;;;;;;8.98;85.98;98097.86;1709978;83;21113;-83
2022/05/17 02:49:23;;;;;;;15.93;8.10;;;;;;;9.02;83.73;98098.40;1716246;80;21180;-85
2022/05/17 02:51:49;;;;;;;14.30;8.05;;;;;;;9.02;84.94;98105.16;1728573;80;21014;-85
2022/05/17 02:54:15;;;;;;;13.85;8.30;;;;;;;9.00;87.31;98103.27;1728502;80;21629;-85
2022/05/17 02:56:41;;;;;;;12.23;7.33;;;;;;;9.02;87.04;98105.16;1719833;83;20894;-85
2022/05/17 02:59:06;;;;;;;13.25;6.92;;;;;;;9.05;86.65;98103.26;1713961;80;20902;-82
2022/05/17 03:01:32;;;;;;;13.50;7.78;;;;;;;9.05;86.48;98102.45;1721858;80;21344;-83
2022/05/17 03:03:58;;;;;;;16.95;8.38;;;;;;;9.08;86.24;98100.58;1730793;80;21531;-85
2022/05/17 03:06:24;;;;;;;18.50;7.15;;;;;;;9.10;85.97;98104.36;1708493;82;20974;-84
2022/05/17 03:08:50;;;;;;;9.88;6.75;;;;;;;9.13;86.77;98100.57;1712832;80;20909;-82
2022/05/17 03:11:16;;;;;;;15.70;7.67;;;;;;;9.17;86.72;98115.73;1727712;82;20958;-85
2022/05/17 03:13:42;;;;;;;18.70;6.25;;;;;;;9.19;86.40;98108.97;1714655;80;21971;-82
2022/05/17 03:16:10;;;;;;;9.88;6.28;;;;;;;9.24;85.70;98113.59;1724710;80;20889;-85
2022/05/17 03:18:36;;;;;;;9.10;5.95;;;;;;;9.28;84.52;98118.17;1727553;80;21030;-84
2022/05/17 03:21:02;;;;;;;10.20;6.83;;;;;;;9.27;85.75;98119.26;1723347;80;21025;-85
2022/05/17 03:23:28;;;;;;;10.68;6.40;;;;;;;9.32;84.45;98117.92;1743005;81;20890;-82
2022/05/17 03:25:54;;;;;;;13.95;7.25;;;;;;;9.35;85.05;98118.46;1747448;80;21871;-83
2022/05/17 03:28:20;;;;;;;16.17;8.43;;;;;;;9.38;84.99;98118.72;1729488;80;20886;-82
2022/05/17 03:30:45;;;;;;;16.05;7.95;;;;;;;9.44;84.69;98120.90;1731347;80;20885;-82
2022/05/17 03:33:11;;;;;;;11.18;7.33;;;;;;;9.45;85.64;98114.41;1743082;81;20965;-85
2022/05/17 03:35:37;;;;;;;12.43;7.22;;;;;;;9.53;84.52;98124.14;1738517;82;20996;-82
2022/05/17 03:38:03;;;;;;;13.35;7.15;;;;;;;9.54;85.03;98113.59;1713683;83;21196;-86
2022/05/17 03:40:29;;;;;;;13.32;6.87;;;;;;;9.60;85.18;98117.12;1739475;80;21647;-84
2022/05/17 03:42:55;;;;;;;13.45;6.92;;;;;;;9.64;85.03;98119.53;1743117;81;20882;-85
2022/05/17 03:45:21;;;;;;;10.55;6.22;;;;;;;9.72;84.82;98131.17;1743057;82;21500;-82
2022/05/17 03:47:47;;;;;;;9.15;5.58;;;;;;;9.81;83.88;98131.44;1743157;82;20888;-82
2022/05/17 03:50:13;;;;;;;13.38;6.85;;;;;;;9.89;84.19;98129.54;1729853;80;21042;-81
2022/05/17 03:52:39;;;;;;;10.45;7.37;;;;;;;9.96;84.18;98136.03;1713537;82;21549;-82
2022/05/17 03:55:07;;;;;;;14.07;6.95;;;;;;;10.03;84.03;98131.16;1736590;80;20993;-83
2022/05/17 03:57:33;;;;;;;12.40;8.13;;;;;;;10.11;83.95;98130.06;1743083;81;21001;-83
2022/05/17 03:59:59;;;;;;;12.37;7.80;;;;;;;10.16;83.99;98134.64;1743104;82;21060;-85
2022/05/17 04:02:25;;;;;;;12.85;8.08;;;;;;;10.21;83.31;98131.93;1743164;81;21792;-82
2022/05/17 04:04:54;;;;;;;17.85;7.83;;;;;;;10.28;83.31;98130.33;1730456;82;21008;-83
2022/05/17 04:07:20;;;;;;;13.08;8.58;;;;;;;10.38;82.72;98133.00;1713526;83;21046;-82
2022/05/17 04:09:46;;;;;;;9.13;5.87;;;;;;;10.46;81.75;98135.14;1732766;80;21020;-82
2022/05/17 04:12:12;;;;;;;13.62;6.80;;;;;;;10.53;81.73;98138.92;1743188;81;21592;-86
2022/05/17 04:14:38;;;;;;;12.90;6.67;;;;;;;10.61;80.77;98139.71;1743185;81;21280;-86
2022/05/17 04:17:05;;;;;;;15.45;6.83;;;;;;;10.64;80.28;98145.38;1743121;81;20854;-85
2022/05/17 04:19:31;;;;;;;13.25;6.85;;;;;;;10.67;81.16;98149.42;1718521;82;21013;-86
2022/05/17 04:21:58;;;;;;;10.85;6.30;;;;;;;10.78;80.97;98152.38;1723933;80;20947;-82
2022/05/17 04:24:27;;;;;;;13.72;6.92;;;;;;;10.82;81.47;98152.62;1729857;80;21029;-82
2022/05/17 04:26:54;;;;;;;14.83;8.53;;;;;;;10.92;80.87;98160.16;1706812;82;21994;-85
2022/05/17 04:29:20;;;;;;;13.72;7.75;;;;;;;11.05;80.23;98161.47;1721345;80;20981;-86
2022/05/17 04:31:46;;;;;;;16.10;8.33;;;;;;;11.17;79.37;98165.19;1743038;81;20973;-83
2022/05/17 04:34:13;;;;;;;15.30;6.97;;;;;;;11.17;79.27;98163.84;1743069;82;21025;-86
2022/05/17 04:36:40;;;;;;;15.38;7.25;;;;;;;11.35;78.27;98161.83;1743124;81;21159;-85
2022/05/17 04:39:06;;;;;;;21.82;7.28;;;;;;;11.35;78.27;98161.83;1741247;80;21192;-83
2022/05/17 04:41:32;;;;;;;12.05;6.72;;;;;;;11.48;77.90;98157.14;1743263;81;21426;-86
2022/05/17 04:43:58;;;;;;;11.73;7.12;;;;;;;11.63;76.17;98149.99;1736108;82;20920;-83
2022/05/17 04:46:24;;;;;;;18.10;7.92;;;;;;;11.69;75.16;98157.79;1720430;82;20890;-83
2022/05/17 04:48:50;;;;;;;9.95;6.65;;;;;;;11.73;75.42;98141.77;1732008;80;21105;-82
2022/05/17 04:51:16;;;;;;;13.28;7.20;;;;;;;11.86;75.30;98156.05;1727264;82;21778;-82
2022/05/17 04:53:43;;;;;;;14.40;7.08;;;;;;;11.83;75.30;98152.56;1737888;81;21020;-85
2022/05/17 04:56:09;;;;;;;16.40;7.50;;;;;;;11.77;76.31;98146.32;1709546;82;20998;-86
2022/05/17 04:58:35;;;;;;;14.28;6.40;;;;;;;11.84;76.06;98152.27;1706394;80;21019;-86
2022/05/17 05:01:01;;;;;;;9.75;6.47;;;;;;;11.89;76.64;98146.55;1733085;82;21571;-82
2022/05/17 05:03:27;;;;;;;12.23;6.45;;;;;;;11.97;76.58;98154.09;1722947;81;21362;-86
2022/05/17 05:05:53;;;;;;;10.68;6.08;;;;;;;12.02;75.90;98149.40;1742192;82;21647;-86
2022/05/17 05:08:19;;;;;;;14.50;6.95;;;;;;;12.01;76.12;98150.50;1742895;81;21004;-86
2022/05/17 05:10:45;;;;;;;11.50;5.42;;;;;;;12.12;75.52;98145.22;1717171;80;20946;-82
2022/05/17 05:13:18;;;;;;;13.15;6.90;;;;;;;12.17;75.70;98152.53;1728184;80;21049;-82
2022/05/17 05:15:44;;;;;;;18.98;8.00;;;;;;;12.26;76.78;98152.71;1694860;82;21068;-82
2022/05/17 05:18:10;;;;;;;15.38;6.37;;;;;;;12.44;75.25;98153.33;1732342;81;20949;-83
2022/05/17 05:20:38;;;;;;;12.63;7.67;;;;;;;12.55;74.39;98156.19;1724553;80;21020;-82
2022/05/17 05:23:06;;;;;;;11.75;7.90;;;;;;;12.58;74.42;98163.78;1731683;82;21090;-86
2022/05/17 05:25:32;;;;;;;13.90;8.93;;;;;;;12.65;73.87;98150.66;1726450;80;21076;-82
2022/05/17 05:27:58;;;;;;;19.00;9.45;;;;;;;12.75;73.38;98155.17;1729312;81;21294;-82
2022/05/17 05:30:24;;;;;;;16.97;8.73;;;;;;;12.82;73.40;98158.87;1726156;80;21639;-82
2022/05/17 05:32:50;;;;;;;20.40;7.58;;;;;;;12.93;72.82;98160.38;1728339;81;21418;-85
2022/05/17 05:35:17;;;;;;;18.77;8.03;;;;;;;13.02;72.66;98162.71;1727906;80;20887;-82
2022/05/17 05:37:43;;;;;;;11.57;7.40;;;;;;;13.06;72.18;98165.09;1728356;81;21027;-86
2022/05/17 05:40:10;;;;;;;13.58;7.80;;;;;;;13.22;72.00;98165.73;1739972;80;21166;-82
2022/05/17 05:42:36;;;;;;;13.20;6.75;;;;;;;13.35;71.65;98162.85;1742453;81;21065;-82
2022/05/17 05:45:02;;;;;;;14.28;7.17;;;;;;;13.42;71.69;98160.58;1740827;80;21171;-82
2022/05/17 05:47:28;;;;;;;12.90;6.85;;;;;;;13.61;71.49;98153.20;1739972;82;21049;-85
2022/05/17 05:49:54;;;;;;;13.28;7.12;;;;;;;13.70;71.07;98150.06;1706813;82;21624;-85
2022/05/17 05:52:20;;;;;;;19.45;7.40;;;;;;;13.90;71.33;98152.19;1698070;83;21243;-86
2022/05/17 05:54:46;;;;;;;15.25;6.60;;;;;;;14.14;70.69;98154.78;1676369;84;20929;-82
2022/05/17 05:57:12;;;;;;;15.30;7.42;;;;;;;14.37;70.01;98147.81;1726042;80;20979;-83
2022/05/17 05:59:38;;;;;;;9.98;5.97;;;;;;;14.77;70.05;98145.42;1744063;80;21018;-86
2022/05/17 06:02:05;;;;;;;8.18;6.25;;;;;;;15.21;69.09;98148.05;1730524;80;20980;-85
2022/05/17 06:04:30;;;;;;;10.43;6.10;;;;;;;15.61;67.18;98148.28;1735581;80;21072;-86
2022/05/17 06:06:57;;;;;;;13.50;5.87;;;;;;;15.72;65.15;98144.17;1735834;80;20925;-82
2022/05/17 06:09:24;;;;;;;11.15;7.60;;;;;;;15.89;64.34;98140.77;1723801;80;21005;-81
2022/05/17 06:11:50;;;;;;;14.45;8.50;;;;;;;15.91;63.41;98143.45;1729202;80;20997;-86
2022/05/17 06:14:16;;;;;;;11.05;5.42;;;;;;;15.95;63.84;98139.53;1726693;80;20985;-86
2022/05/17 06:16:42;;;;;;;14.13;6.25;;;;;;;16.10;62.22;98130.14;1696761;82;21678;-83
2022/05/17 06:19:08;;;;;;;13.83;7.37;;;;;;;16.06;61.52;98133.52;1737682;80;20981;-82
2022/05/17 06:21:34;;;;;;;11.20;5.37;;;;;;;16.16;61.60;98138.47;1724346;80;20932;-86
2022/05/17 06:24:00;;;;;;;8.48;5.03;;;;;;;16.16;59.03;98131.63;1729518;80;20965;-82
2022/05/17 06:26:26;;;;;;;11.78;6.40;;;;;;;15.95;59.45;98132.70;1734871;80;21060;-80
2022/05/17 06:28:52;;;;;;;8.53;5.30;;;;;;;16.03;60.08;98136.05;1727861;80;21141;-82
2022/05/17 06:31:18;;;;;;;12.82;4.80;;;;;;;16.23;59.91;98133.34;1730112;80;21580;-82
2022/05/17 06:33:43;;;;;;;11.30;6.10;;;;;;;16.39;59.08;98128.27;1724123;80;20901;-82
2022/05/17 06:36:09;;;;;;;8.88;5.50;;;;;;;16.51;58.39;98130.67;1743266;80;20911;-82
2022/05/17 06:38:35;;;;;;;10.93;6.12;;;;;;;16.54;58.09;98123.20;1734002;80;21707;-82
2022/05/17 06:41:03;;;;;;;9.60;5.55;;;;;;;16.52;58.64;98126.02;1742646;80;21267;-82
2022/05/17 06:43:29;;;;;;;12.07;6.50;;;;;;;16.64;58.00;98134.41;1722948;80;21032;-82
2022/05/17 06:45:55;;;;;;;9.78;6.17;;;;;;;16.64;58.63;98127.02;1723831;80;21532;-82
2022/05/17 06:48:21;;;;;;;9.88;6.12;;;;;;;16.79;57.76;98129.11;1737454;80;20867;-82
2022/05/17 06:50:47;;;;;;;14.15;6.45;;;;;;;16.72;57.98;98128.20;1735022;80;21063;-82
2022/05/17 06:53:13;;;;;;;18.05;6.15;;;;;;;16.86;57.79;98127.53;1729358;80;22049;-82
2022/05/17 06:55:39;;;;;;;12.47;5.70;;;;;;;16.97;57.34;98125.85;1732829;80;21080;-82
2022/05/17 06:58:06;;;;;;;9.35;5.10;;;;;;;17.07;57.75;98127.72;1723137;80;20913;-82
2022/05/17 07:00:32;;;;;;;9.75;5.67;;;;;;;17.27;57.49;98126.32;1747374;80;21154;-82
2022/05/17 07:02:59;;;;;;;10.63;5.15;;;;;;;17.44;56.73;98132.38;1737535;80;20887;-82
2022/05/17 07:05:26;;;;;;;12.07;5.28;;;;;;;17.69;56.32;98119.80;1730159;80;21314;-82
2022/05/17 07:07:53;;;;;;;9.38;5.92;;;;;;;17.86;56.37;98118.45;1705963;82;21042;-82
2022/05/17 07:13:09;;;;;;;8.63;5.12;;;;;;;18.41;53.91;98120.97;1728039;80;21799;-82
2022/05/17 07:15:42;;;;;;;13.80;7.60;;;;;;;18.51;54.37;98110.42;1720761;80;21399;-83
2022/05/17 07:18:10;;;;;;;9.23;5.08;;;;;;;18.91;53.84;98118.34;1724090;80;21541;-82
2022/05/17 07:20:36;;;;;;;8.68;4.75;;;;;;;19.34;52.50;98115.31;1725438;80;21056;-82
2022/05/17 07:23:03;;;;;;;10.20;5.08;;;;;;;19.56;52.02;98108.69;1726166;80;20983;-83
2022/05/17 07:25:31;;;;;;;12.07;4.37;;;;;;;19.44;48.01;98109.41;1726164;81;21465;-83
2022/05/17 07:27:57;;;;;;;8.17;5.13;;;;;;;19.54;48.86;98111.52;1740915;80;20982;-83
2022/05/17 07:30:23;;;;;;;11.97;4.50;;;;;;;19.76;50.02;98109.83;1725549;80;21077;-83
2022/05/17 07:32:49;;;;;;;8.35;4.33;;;;;;;19.92;48.48;98115.50;1740180;80;21036;-83
2022/05/17 07:35:15;;;;;;;7.45;4.10;;;;;;;20.01;48.86;98109.34;1727095;78;21509;-83
2022/05/17 07:37:41;;;;;;;9.30;3.47;;;;;;;20.16;48.99;98112.80;1740393;80;20902;-83
2022/05/17 07:40:08;;;;;;;9.90;5.50;;;;;;;20.26;47.01;98108.84;1724548;80;20956;-83
2022/05/17 07:42:34;;;;;;;13.95;9.38;;;;;;;20.24;46.44;98111.10;1727638;80;22096;-83
2022/05/17 07:45:00;;;;;;;13.70;7.55;;;;;;;20.13;46.02;98112.12;1716620;80;20879;-83
2022/05/17 07:47:26;;;;;;;13.05;6.20;;;;;;;20.38;47.90;98108.05;1741267;80;21563;-83
2022/05/17 07:49:52;;;;;;;13.55;7.05;;;;;;;20.61;48.07;98111.20;1739961;80;20878;-83
2022/05/17 07:52:18;;;;;;;16.52;8.58;;;;;;;20.49;46.76;98103.15;1721992;80;38994;-83
2022/05/17 07:54:44;;;;;;;8.23;5.22;;;;;;;20.53;48.16;98104.66;1728734;80;21469;-83
2022/05/17 07:57:10;;;;;;;10.13;5.75;;;;;;;20.31;47.96;98107.22;1715485;82;21559;-83
2022/05/17 07:59:36;;;;;;;10.72;5.35;;;;;;;20.32;48.35;98103.90;1727414;80;20910;-83
2022/05/17 08:02:02;;;;;;;12.23;7.25;;;;;;;20.35;48.61;98099.91;1731936;80;21024;-83
2022/05/17 08:04:30;;;;;;;10.10;6.92;;;;;;;20.36;48.77;98099.34;1721561;80;21434;-83
2022/05/17 08:06:56;;;;;;;11.40;6.70;;;;;;;20.40;49.24;98101.05;1713406;82;21515;-83
2022/05/17 08:09:23;;;;;;;10.45;6.05;;;;;;;20.50;48.90;98105.33;1717036;82;21040;-83
2022/05/17 08:11:50;;;;;;;11.70;6.42;;;;;;;20.61;49.17;98107.88;1724955;80;21115;-83
2022/05/17 08:14:17;;;;;;;11.10;6.37;;;;;;;20.69;49.10;98093.78;1724024;80;21058;-83
2022/05/17 08:16:43;;;;;;;16.05;7.55;;;;;;;20.98;49.48;98103.16;1730017;80;21065;-83
2022/05/17 08:19:09;;;;;;;14.73;7.33;;;;;;;20.99;50.07;98104.77;1723451;80;21535;-83
2022/05/17 08:21:36;;;;;;;10.93;6.58;;;;;;;21.20;50.31;98103.83;1695936;82;21130;-82
2022/05/17 08:24:02;;;;;;;10.85;7.58;;;;;;;20.83;51.39;98106.61;1718635;80;21402;-86
2022/05/17 08:29:12;;;;;;;13.83;7.50;;;;;;;21.03;51.23;98098.80;1733483;80;21482;-86
2022/05/17 08:31:38;;;;;;;9.80;6.35;;;;;;;21.22;50.83;98098.20;1714013;80;22237;-87
2022/05/17 08:34:06;;;;;;;10.13;7.25;;;;;;;21.34;50.90;98094.63;1718244;81;20876;-86
2022/05/17 08:36:32;;;;;;;12.55;6.35;;;;;;;21.28;50.98;98098.22;1732561;80;21148;-87
2022/05/17 08:38:58;;;;;;;10.63;6.25;;;;;;;21.42;50.84;98097.02;1729035;80;21053;-86
2022/05/17 08:41:38;;;;;;;10.50;5.17;;;;;;;21.39;50.00;98097.95;1720877;80;21318;-85
2022/05/17 08:44:14;;;;;;;11.93;6.10;;;;;;;21.41;50.29;98100.36;1738966;80;21776;-86
2022/05/17 08:47:11;;;;;;;12.23;7.22;;;;;;;21.40;50.12;98091.86;1728308;80;21680;-87
2022/05/17 08:49:40;;;;;;;9.33;6.33;;;;;;;21.29;50.38;98101.20;1726385;80;21061;-86
2022/05/17 08:52:20;;;;;;;12.23;7.42;;;;;;;21.35;50.56;98111.39;1718177;81;21060;-83
2022/05/17 08:55:19;;;;;;;10.82;6.20;;;;;;;21.28;50.21;98109.82;1723874;80;21072;-83
2022/05/17 08:57:49;;;;;;;14.70;6.37;;;;;;;20.96;50.71;98108.80;1727553;80;21167;-83
2022/05/17 09:00:34;;;;;;;11.08;6.35;;;;;;;20.53;51.39;98111.55;1717739;80;20979;-83
2022/05/17 09:03:22;;;;;;;12.78;7.28;;;;;;;20.46;51.50;98111.30;1721687;80;21477;-83
2022/05/17 09:05:59;;;;;;;12.65;7.65;;;;;;;20.42;51.92;98110.33;1715449;80;21068;-83
2022/05/17 09:08:59;;;;;;;12.47;8.38;;;;;;;20.18;52.55;98111.91;1729250;80;21424;-83
2022/05/17 09:11:40;;;;;;;10.93;6.35;;;;;;;20.15;52.11;98109.02;1717141;80;21135;-84
2022/05/17 09:14:12;;;;;;;14.45;8.85;;;;;;;19.91;52.46;98103.70;1717194;80;21108;-83
2022/05/17 09:16:41;;;;;;;17.73;9.00;;;;;;;19.94;52.43;98107.14;1734606;80;21092;-83
2022/05/17 09:19:08;;;;;;;15.32;8.30;;;;;;;19.78;53.04;98108.91;1742906;80;21127;-83
2022/05/17 09:21:40;;;;;;;13.98;5.83;;;;;;;19.82;52.94;98113.95;1732444;80;21411;-84
2022/05/17 09:24:19;;;;;;;13.88;5.65;;;;;;;19.90;52.42;98118.56;1736064;80;21043;-83
2022/05/17 09:26:52;;;;;;;11.53;7.40;;;;;;;19.90;52.12;98107.57;1728884;80;21065;-83
2022/05/17 09:29:26;;;;;;;16.97;8.53;;;;;;;19.85;52.49;98115.25;1729267;80;21492;-83
2022/05/17 09:31:56;;;;;;;10.90;5.30;;;;;;;20.02;52.01;98116.45;1733616;80;21089;-83
2022/05/17 09:34:43;;;;;;;8.98;4.80;;;;;;;19.84;50.69;98119.94;1737196;80;21406;-83
2022/05/17 09:37:18;;;;;;;8.93;5.03;;;;;;;19.75;50.79;98116.47;1738086;80;21094;-83
2022/05/17 09:39:50;;;;;;;13.15;5.10;;;;;;;19.62;50.99;98121.09;1719561;80;21065;-83
2022/05/17 09:42:26;;;;;;;8.28;4.85;;;;;;;19.77;50.53;98123.80;1741036;80;22225;-83
2022/05/17 09:44:54;;;;;;;10.55;5.35;;;;;;;19.52;50.57;98116.55;1736358;80;21367;-83
2022/05/17 09:47:33;;;;;;;13.32;6.65;;;;;;;19.50;51.82;98122.39;1710950;82;21058;-83
2022/05/17 09:53:07;;;;;;;13.43;6.87;;;;;;;19.85;52.36;98126.24;1731619;80;21064;-83
2022/05/17 09:55:34;;;;;;;9.65;6.10;;;;;;;19.93;52.44;98137.16;1729983;80;21053;-83
2022/05/17 09:58:04;;;;;;;9.75;5.67;;;;;;;19.95;52.43;98134.87;1731595;80;21108;-83
2022/05/17 10:00:46;;;;;;;10.35;5.30;;;;;;;20.15;52.18;98130.45;1722494;81;21010;-82
2022/05/17 10:03:35;;;;;;;6.50;4.70;;;;;;;19.96;52.22;98133.72;1745023;80;21166;-83
2022/05/17 10:06:14;;;;;;;8.73;4.97;;;;;;;20.21;51.66;98126.35;1714114;80;21687;-83
2022/05/17 10:08:47;;;;;;;8.80;5.60;;;;;;;20.28;50.82;98128.55;1719275;81;21046;-83
2022/05/17 10:11:23;;;;;;;7.72;5.28;;;;;;;20.26;50.93;98125.34;1668315;82;21013;-83
2022/05/17 10:14:27;;;;;;;11.97;5.37;;;;;;;20.09;51.09;98120.03;1728447;80;20974;-83
2022/05/17 10:17:03;;;;;;;13.72;7.22;;;;;;;20.17;50.98;98121.89;1735187;80;21079;-83
2022/05/17 10:19:44;;;;;;;10.98;6.55;;;;;;;20.15;51.29;98121.40;1740780;80;21013;-83
2022/05/17 10:22:39;;;;;;;9.65;6.47;;;;;;;20.11;51.51;98128.16;1730532;80;21089;-86
2022/05/17 10:25:26;;;;;;;10.20;5.53;;;;;;;20.19;51.41;98124.52;1734429;80;21749;-87
2022/05/17 10:27:58;;;;;;;10.68;5.35;;;;;;;20.21;51.38;98126.92;1724574;81;21056;-86
2022/05/17 10:30:41;;;;;;;10.32;6.15;;;;;;;20.06;51.85;98122.87;1718641;80;21954;-86
2022/05/17 10:33:13;;;;;;;10.28;6.22;;;;;;;20.19;51.87;98126.47;1695630;82;21063;-87
2022/05/17 10:35:49;;;;;;;8.75;5.35;;;;;;;19.98;52.36;98127.88;1727720;80;21000;-86
2022/05/17 10:38:25;;;;;;;12.35;6.35;;;;;;;20.06;52.45;98135.81;1711076;81;21035;-87
2022/05/17 10:40:53;;;;;;;15.23;7.70;;;;;;;20.19;52.39;98127.27;1730639;80;21079;-87
2022/05/17 10:43:35;;;;;;;15.35;7.50;;;;;;;20.13;52.23;98129.20;1717590;80;21060;-87
2022/05/17 10:46:10;;;;;;;13.90;6.75;;;;;;;20.08;52.60;98127.48;1724711;80;20994;-86
2022/05/17 10:49:07;;;;;;;10.85;7.15;;;;;;;20.08;52.98;98125.27;1725174;80;22122;-87
2022/05/17 10:51:38;;;;;;;12.50;6.97;;;;;;;19.94;53.36;98129.71;1720826;82;21155;-86
2022/05/17 10:54:21;;;;;;;20.62;10.55;;;;;;;20.00;54.20;98129.17;1728815;80;21071;-87
2022/05/17 10:57:27;;;;;;;14.60;7.53;;;;;;;20.18;53.17;98124.30;1737229;80;21074;-87
2022/05/17 10:59:58;;;;;;;12.18;6.60;;;;;;;20.32;52.93;98125.91;1729705;80;21052;-87
2022/05/17 11:03:20;;;;;;;11.75;7.45;;;;;;;20.33;53.00;98123.39;1725435;81;21180;-88
2022/05/17 11:06:18;;;;;;;22.82;14.68;;;;;;;20.16;54.01;98125.18;1731487;80;21053;-86
2022/05/17 11:09:01;;;;;;;20.40;12.85;;;;;;;20.28;53.38;98125.23;1726436;81;21042;-87
2022/05/17 11:12:09;;;;;;;21.30;13.45;;;;;;;20.20;53.49;98118.44;1735685;80;21149;-88
2022/05/17 11:14:54;;;;;;;14.13;8.33;;;;;;;20.19;53.47;98122.34;1721877;80;21047;-87
2022/05/17 11:17:50;;;;;;;11.20;7.83;;;;;;;20.20;53.61;98119.82;1728944;80;21058;-87
2022/05/17 11:20:27;;;;;;;17.25;7.60;;;;;;;20.32;53.43;98129.47;1732053;80;21044;-87
2022/05/17 11:23:08;;;;;;;;;;;;;;;20.29;53.66;98129.58;1734774;80;21046;-88
2022/05/17 11:25:56;;;;;;;12.23;5.30;;;;;;;20.37;54.07;98125.70;1725184;80;21457;-88
2022/05/17 11:28:31;;;;;;;14.58;7.20;;;;;;;20.49;53.64;98133.42;1739216;80;21151;-87
2022/05/17 11:31:20;;;;;;;13.18;7.75;;;;;;;20.53;53.59;98129.44;1732570;80;20984;-87
2022/05/17 11:33:46;;;;;;;11.50;4.83;;;;;;;20.55;53.54;98128.52;1734249;80;21143;-83
2022/05/17 11:36:32;;;;;;;11.78;4.78;;;;;;;20.65;53.45;98128.05;1734318;80;21061;-83
2022/05/17 11:38:59;;;;;;;11.80;4.97;;;;;;;20.68;53.19;98124.64;1729183;80;21117;-84
2022/05/17 11:41:42;;;;;;;12.47;5.62;;;;;;;20.75;53.81;98120.72;1717235;80;21057;-83
2022/05/17 11:44:20;;;;;;;13.15;5.33;;;;;;;20.73;53.82;98126.34;1738001;80;21115;-83
2022/05/17 11:46:58;;;;;;;7.42;4.00;;;;;;;20.85;53.78;98120.86;1724241;80;25766;-84
2022/05/17 11:49:27;;;;;;;9.23;4.97;;;;;;;20.76;51.25;98122.89;1723916;80;20968;-83
2022/05/17 11:52:08;;;;;;;15.25;5.37;;;;;;;20.94;53.00;98127.63;1720036;80;21501;-83
2022/05/17 11:54:46;;;;;;;12.58;4.62;;;;;;;20.96;52.11;98128.88;1729078;80;21121;-83
2022/05/17 11:57:27;;;;;;;14.55;5.62;;;;;;;20.93;52.37;98125.99;1706184;81;21095;-83